sensor_id;sensor_type;location;lat;lon;timestamp;temperature;humidity
22081;DHT22;11207;59.512;18.050;2022-07-17T00:00:51;13.60;99.90
22081;DHT22;11207;59.512;18.050;2022-07-17T00:03:17;13.60;99.90
22081;DHT22;11207;59.512;18.050;2022-07-17T00:05:44;13.60;99.90
22081;DHT22;11207;59.512;18.050;2022-07-17T00:08:11;13.60;99.90
22081;DHT22;11207;59.512;18.050;2022-07-17T00:10:39;13.60;99.90
22081;DHT22;11207;59.512;18.050;2022-07-17T00:13:06;13.70;99.90
22081;DHT22;11207;59.512;18.050;2022-07-17T00:15:32;13.70;99.90
22081;DHT22;11207;59.512;18.050;2022-07-17T00:17:58;13.70;99.90
22081;DHT22;11207;59.512;18.050;2022-07-17T00:20:25;13.70;99.90
22081;DHT22;11207;59.512;18.050;2022-07-17T00:22:52;13.60;99.90
22081;DHT22;11207;59.512;18.050;2022-07-17T00:25:17;13.60;99.90
22081;DHT22;11207;59.512;18.050;2022-07-17T00:27:43;13.60;99.90
22081;DHT22;11207;59.512;18.050;2022-07-17T00:30:09;13.60;99.90
22081;DHT22;11207;59.512;18.050;2022-07-17T00:32:35;13.60;99.90
22081;DHT22;11207;59.512;18.050;2022-07-17T00:35:02;13.70;99.90
22081;DHT22;11207;59.512;18.050;2022-07-17T00:37:27;13.60;99.90
22081;DHT22;11207;59.512;18.050;2022-07-17T00:39:53;13.60;99.90
22081;DHT22;11207;59.512;18.050;2022-07-17T00:42:19;13.60;99.90
22081;DHT22;11207;59.512;18.050;2022-07-17T00:44:45;13.60;99.90
22081;DHT22;11207;59.512;18.050;2022-07-17T00:47:19;13.60;99.90
22081;DHT22;11207;59.512;18.050;2022-07-17T00:49:46;13.60;99.90
22081;DHT22;11207;59.512;18.050;2022-07-17T00:52:13;13.60;99.90
22081;DHT22;11207;59.512;18.050;2022-07-17T00:54:41;13.60;99.90
22081;DHT22;11207;59.512;18.050;2022-07-17T00:57:12;13.60;99.90
22081;DHT22;11207;59.512;18.050;2022-07-17T00:59:38;13.60;99.90
22081;DHT22;11207;59.512;18.050;2022-07-17T01:02:10;13.60;99.90
22081;DHT22;11207;59.512;18.050;2022-07-17T01:04:37;13.60;99.90
22081;DHT22;11207;59.512;18.050;2022-07-17T01:07:07;13.60;99.90
22081;DHT22;11207;59.512;18.050;2022-07-17T01:09:33;13.60;99.90
22081;DHT22;11207;59.512;18.050;2022-07-17T01:11:59;13.60;99.90
22081;DHT22;11207;59.512;18.050;2022-07-17T01:14:26;13.60;99.90
22081;DHT22;11207;59.512;18.050;2022-07-17T01:16:53;13.70;99.90
22081;DHT22;11207;59.512;18.050;2022-07-17T01:19:20;13.70;99.90
22081;DHT22;11207;59.512;18.050;2022-07-17T01:21:48;13.50;99.90
22081;DHT22;11207;59.512;18.050;2022-07-17T01:24:14;13.50;99.90
22081;DHT22;11207;59.512;18.050;2022-07-17T01:26:45;13.40;99.90
22081;DHT22;11207;59.512;18.050;2022-07-17T01:29:12;13.40;99.90
22081;DHT22;11207;59.512;18.050;2022-07-17T01:31:39;13.40;99.90
22081;DHT22;11207;59.512;18.050;2022-07-17T01:34:06;13.40;99.90
22081;DHT22;11207;59.512;18.050;2022-07-17T01:36:33;13.40;99.90
22081;DHT22;11207;59.512;18.050;2022-07-17T01:38:58;13.40;99.90
22081;DHT22;11207;59.512;18.050;2022-07-17T01:41:24;13.30;99.90
22081;DHT22;11207;59.512;18.050;2022-07-17T01:43:50;13.30;99.90
22081;DHT22;11207;59.512;18.050;2022-07-17T01:46:15;13.30;99.90
22081;DHT22;11207;59.512;18.050;2022-07-17T01:48:41;13.30;99.90
22081;DHT22;11207;59.512;18.050;2022-07-17T01:51:07;13.20;99.90
22081;DHT22;11207;59.512;18.050;2022-07-17T01:53:33;13.20;99.90
22081;DHT22;11207;59.512;18.050;2022-07-17T01:55:59;13.20;99.90
22081;DHT22;11207;59.512;18.050;2022-07-17T01:58:25;13.10;99.90
22081;DHT22;11207;59.512;18.050;2022-07-17T02:00:51;13.00;99.90
22081;DHT22;11207;59.512;18.050;2022-07-17T02:03:17;12.90;99.90
22081;DHT22;11207;59.512;18.050;2022-07-17T02:05:43;12.90;99.90
22081;DHT22;11207;59.512;18.050;2022-07-17T02:08:09;12.90;99.90
22081;DHT22;11207;59.512;18.050;2022-07-17T02:10:35;12.90;99.90
22081;DHT22;11207;59.512;18.050;2022-07-17T02:13:00;12.80;99.90
22081;DHT22;11207;59.512;18.050;2022-07-17T02:15:26;12.80;99.90
22081;DHT22;11207;59.512;18.050;2022-07-17T02:17:52;12.70;99.90
22081;DHT22;11207;59.512;18.050;2022-07-17T02:20:17;12.60;99.90
22081;DHT22;11207;59.512;18.050;2022-07-17T02:22:43;12.60;99.90
22081;DHT22;11207;59.512;18.050;2022-07-17T02:25:10;12.60;99.90
22081;DHT22;11207;59.512;18.050;2022-07-17T02:27:36;12.50;99.90
22081;DHT22;11207;59.512;18.050;2022-07-17T02:30:08;12.50;99.90
22081;DHT22;11207;59.512;18.050;2022-07-17T02:32:34;12.40;99.90
22081;DHT22;11207;59.512;18.050;2022-07-17T02:34:59;12.40;99.90
22081;DHT22;11207;59.512;18.050;2022-07-17T02:37:25;12.40;99.90
22081;DHT22;11207;59.512;18.050;2022-07-17T02:39:51;12.50;99.90
22081;DHT22;11207;59.512;18.050;2022-07-17T02:42:24;12.50;99.90
22081;DHT22;11207;59.512;18.050;2022-07-17T02:44:50;12.50;99.90
22081;DHT22;11207;59.512;18.050;2022-07-17T02:47:27;12.50;99.90
22081;DHT22;11207;59.512;18.050;2022-07-17T02:49:53;12.50;99.90
22081;DHT22;11207;59.512;18.050;2022-07-17T02:52:19;12.50;99.90
22081;DHT22;11207;59.512;18.050;2022-07-17T02:54:45;12.60;99.90
22081;DHT22;11207;59.512;18.050;2022-07-17T02:57:11;12.60;99.90
22081;DHT22;11207;59.512;18.050;2022-07-17T02:59:37;12.60;99.90
22081;DHT22;11207;59.512;18.050;2022-07-17T03:02:03;12.60;99.90
22081;DHT22;11207;59.512;18.050;2022-07-17T03:04:28;12.60;99.90
22081;DHT22;11207;59.512;18.050;2022-07-17T03:06:54;12.70;99.90
22081;DHT22;11207;59.512;18.050;2022-07-17T03:09:19;12.60;99.90
22081;DHT22;11207;59.512;18.050;2022-07-17T03:11:45;12.60;99.90
22081;DHT22;11207;59.512;18.050;2022-07-17T03:14:11;12.60;99.90
22081;DHT22;11207;59.512;18.050;2022-07-17T03:16:36;12.50;99.90
22081;DHT22;11207;59.512;18.050;2022-07-17T03:19:05;12.50;99.90
22081;DHT22;11207;59.512;18.050;2022-07-17T03:21:30;12.40;99.90
22081;DHT22;11207;59.512;18.050;2022-07-17T03:23:56;12.50;99.90
22081;DHT22;11207;59.512;18.050;2022-07-17T03:26:21;12.40;99.90
22081;DHT22;11207;59.512;18.050;2022-07-17T03:28:47;12.30;99.90
22081;DHT22;11207;59.512;18.050;2022-07-17T03:31:13;12.30;99.90
22081;DHT22;11207;59.512;18.050;2022-07-17T03:33:38;12.30;99.90
22081;DHT22;11207;59.512;18.050;2022-07-17T03:36:04;12.20;99.90
22081;DHT22;11207;59.512;18.050;2022-07-17T03:38:30;12.30;99.90
22081;DHT22;11207;59.512;18.050;2022-07-17T03:40:55;12.30;99.90
22081;DHT22;11207;59.512;18.050;2022-07-17T03:43:21;12.30;99.90
22081;DHT22;11207;59.512;18.050;2022-07-17T03:45:47;12.40;99.90
22081;DHT22;11207;59.512;18.050;2022-07-17T03:48:12;12.50;99.90
22081;DHT22;11207;59.512;18.050;2022-07-17T03:50:38;12.50;99.90
22081;DHT22;11207;59.512;18.050;2022-07-17T03:53:03;12.50;99.90
22081;DHT22;11207;59.512;18.050;2022-07-17T03:55:29;12.60;99.90
22081;DHT22;11207;59.512;18.050;2022-07-17T03:57:55;12.80;99.90
22081;DHT22;11207;59.512;18.050;2022-07-17T04:00:21;12.80;99.90
22081;DHT22;11207;59.512;18.050;2022-07-17T04:02:46;12.90;99.90
22081;DHT22;11207;59.512;18.050;2022-07-17T04:05:12;12.90;99.90
22081;DHT22;11207;59.512;18.050;2022-07-17T04:07:42;13.00;99.90
22081;DHT22;11207;59.512;18.050;2022-07-17T04:10:10;13.00;99.90
22081;DHT22;11207;59.512;18.050;2022-07-17T04:12:36;13.10;99.90
22081;DHT22;11207;59.512;18.050;2022-07-17T04:15:02;13.10;99.90
22081;DHT22;11207;59.512;18.050;2022-07-17T04:17:28;13.10;99.90
22081;DHT22;11207;59.512;18.050;2022-07-17T04:19:54;13.10;99.90
22081;DHT22;11207;59.512;18.050;2022-07-17T04:22:20;13.20;99.90
22081;DHT22;11207;59.512;18.050;2022-07-17T04:24:45;13.20;99.90
22081;DHT22;11207;59.512;18.050;2022-07-17T04:27:11;13.30;99.90
22081;DHT22;11207;59.512;18.050;2022-07-17T04:29:37;13.30;99.90
22081;DHT22;11207;59.512;18.050;2022-07-17T04:32:05;13.30;99.90
22081;DHT22;11207;59.512;18.050;2022-07-17T04:34:32;13.40;99.90
22081;DHT22;11207;59.512;18.050;2022-07-17T04:36:58;13.50;99.90
22081;DHT22;11207;59.512;18.050;2022-07-17T04:39:24;13.50;99.90
22081;DHT22;11207;59.512;18.050;2022-07-17T04:41:50;13.50;99.90
22081;DHT22;11207;59.512;18.050;2022-07-17T04:44:16;13.60;99.90
22081;DHT22;11207;59.512;18.050;2022-07-17T04:46:42;13.80;99.90
22081;DHT22;11207;59.512;18.050;2022-07-17T04:49:07;14.20;99.90
22081;DHT22;11207;59.512;18.050;2022-07-17T04:51:33;14.60;99.90
22081;DHT22;11207;59.512;18.050;2022-07-17T04:53:58;15.10;99.90
22081;DHT22;11207;59.512;18.050;2022-07-17T04:56:24;15.50;99.90
22081;DHT22;11207;59.512;18.050;2022-07-17T04:58:50;15.90;99.90
22081;DHT22;11207;59.512;18.050;2022-07-17T05:01:16;16.20;99.90
22081;DHT22;11207;59.512;18.050;2022-07-17T05:03:42;16.70;99.90
22081;DHT22;11207;59.512;18.050;2022-07-17T05:06:07;17.00;99.90
22081;DHT22;11207;59.512;18.050;2022-07-17T05:08:36;17.20;99.90
22081;DHT22;11207;59.512;18.050;2022-07-17T05:11:02;17.40;99.40
22081;DHT22;11207;59.512;18.050;2022-07-17T05:13:28;17.50;99.90
22081;DHT22;11207;59.512;18.050;2022-07-17T05:15:53;17.70;99.90
22081;DHT22;11207;59.512;18.050;2022-07-17T05:18:20;17.80;99.90
22081;DHT22;11207;59.512;18.050;2022-07-17T05:20:46;17.70;99.10
22081;DHT22;11207;59.512;18.050;2022-07-17T05:23:11;17.40;97.60
22081;DHT22;11207;59.512;18.050;2022-07-17T05:25:37;17.40;98.70
22081;DHT22;11207;59.512;18.050;2022-07-17T05:28:03;17.40;97.30
22081;DHT22;11207;59.512;18.050;2022-07-17T05:30:30;17.50;97.90
22081;DHT22;11207;59.512;18.050;2022-07-17T05:32:56;17.60;97.20
22081;DHT22;11207;59.512;18.050;2022-07-17T05:35:21;17.70;96.90
22081;DHT22;11207;59.512;18.050;2022-07-17T05:37:47;17.80;96.30
22081;DHT22;11207;59.512;18.050;2022-07-17T05:40:13;17.60;96.10
22081;DHT22;11207;59.512;18.050;2022-07-17T05:42:38;17.70;96.10
22081;DHT22;11207;59.512;18.050;2022-07-17T05:45:05;17.70;97.10
22081;DHT22;11207;59.512;18.050;2022-07-17T05:47:31;17.60;98.10
22081;DHT22;11207;59.512;18.050;2022-07-17T05:49:57;17.70;96.40
22081;DHT22;11207;59.512;18.050;2022-07-17T05:52:22;17.70;96.00
22081;DHT22;11207;59.512;18.050;2022-07-17T05:54:48;17.70;95.10
22081;DHT22;11207;59.512;18.050;2022-07-17T05:57:14;17.60;96.20
22081;DHT22;11207;59.512;18.050;2022-07-17T05:59:39;17.60;96.90
22081;DHT22;11207;59.512;18.050;2022-07-17T06:02:05;17.60;96.60
22081;DHT22;11207;59.512;18.050;2022-07-17T06:04:31;17.60;97.00
22081;DHT22;11207;59.512;18.050;2022-07-17T06:06:57;17.70;97.80
22081;DHT22;11207;59.512;18.050;2022-07-17T06:09:22;17.70;97.00
22081;DHT22;11207;59.512;18.050;2022-07-17T06:11:48;17.70;95.00
22081;DHT22;11207;59.512;18.050;2022-07-17T06:14:14;17.50;96.60
22081;DHT22;11207;59.512;18.050;2022-07-17T06:16:39;17.60;95.90
22081;DHT22;11207;59.512;18.050;2022-07-17T06:19:05;17.60;96.10
22081;DHT22;11207;59.512;18.050;2022-07-17T06:21:30;17.50;95.80
22081;DHT22;11207;59.512;18.050;2022-07-17T06:23:56;17.60;96.60
22081;DHT22;11207;59.512;18.050;2022-07-17T06:26:22;17.60;96.10
22081;DHT22;11207;59.512;18.050;2022-07-17T06:28:47;17.70;97.10
22081;DHT22;11207;59.512;18.050;2022-07-17T06:31:14;17.70;97.00
22081;DHT22;11207;59.512;18.050;2022-07-17T06:33:39;17.80;96.90
22081;DHT22;11207;59.512;18.050;2022-07-17T06:36:05;17.80;97.20
22081;DHT22;11207;59.512;18.050;2022-07-17T06:38:32;17.90;97.60
22081;DHT22;11207;59.512;18.050;2022-07-17T06:40:59;18.10;94.50
22081;DHT22;11207;59.512;18.050;2022-07-17T06:43:25;18.20;93.60
22081;DHT22;11207;59.512;18.050;2022-07-17T06:45:51;18.20;92.40
22081;DHT22;11207;59.512;18.050;2022-07-17T06:48:19;18.20;93.10
22081;DHT22;11207;59.512;18.050;2022-07-17T06:50:45;18.30;92.30
22081;DHT22;11207;59.512;18.050;2022-07-17T06:53:11;18.30;92.30
22081;DHT22;11207;59.512;18.050;2022-07-17T06:55:36;18.30;94.10
22081;DHT22;11207;59.512;18.050;2022-07-17T06:58:05;18.30;93.90
22081;DHT22;11207;59.512;18.050;2022-07-17T07:00:31;18.40;92.30
22081;DHT22;11207;59.512;18.050;2022-07-17T07:02:56;18.40;92.80
22081;DHT22;11207;59.512;18.050;2022-07-17T07:05:22;18.40;91.80
22081;DHT22;11207;59.512;18.050;2022-07-17T07:07:47;18.40;91.20
22081;DHT22;11207;59.512;18.050;2022-07-17T07:10:13;18.40;91.90
22081;DHT22;11207;59.512;18.050;2022-07-17T07:12:39;18.60;92.50
22081;DHT22;11207;59.512;18.050;2022-07-17T07:15:05;18.70;92.80
22081;DHT22;11207;59.512;18.050;2022-07-17T07:17:33;18.70;92.40
22081;DHT22;11207;59.512;18.050;2022-07-17T07:20:00;19.00;91.40
22081;DHT22;11207;59.512;18.050;2022-07-17T07:22:26;19.10;88.70
22081;DHT22;11207;59.512;18.050;2022-07-17T07:24:52;19.30;87.70
22081;DHT22;11207;59.512;18.050;2022-07-17T07:27:17;19.50;87.60
22081;DHT22;11207;59.512;18.050;2022-07-17T07:29:43;19.50;88.90
22081;DHT22;11207;59.512;18.050;2022-07-17T07:32:08;19.70;85.20
22081;DHT22;11207;59.512;18.050;2022-07-17T07:34:34;19.80;84.70
22081;DHT22;11207;59.512;18.050;2022-07-17T07:37:00;19.80;86.80
22081;DHT22;11207;59.512;18.050;2022-07-17T07:39:25;20.00;86.70
22081;DHT22;11207;59.512;18.050;2022-07-17T07:41:51;20.10;86.60
22081;DHT22;11207;59.512;18.050;2022-07-17T07:44:16;20.20;81.50
22081;DHT22;11207;59.512;18.050;2022-07-17T07:46:43;20.10;78.90
22081;DHT22;11207;59.512;18.050;2022-07-17T07:49:09;20.20;80.90
22081;DHT22;11207;59.512;18.050;2022-07-17T07:51:35;20.60;78.80
22081;DHT22;11207;59.512;18.050;2022-07-17T07:54:00;20.70;79.90
22081;DHT22;11207;59.512;18.050;2022-07-17T07:56:26;20.90;77.10
22081;DHT22;11207;59.512;18.050;2022-07-17T07:58:52;20.60;75.50
22081;DHT22;11207;59.512;18.050;2022-07-17T08:01:18;20.60;77.50
22081;DHT22;11207;59.512;18.050;2022-07-17T08:03:43;20.60;75.70
22081;DHT22;11207;59.512;18.050;2022-07-17T08:06:09;20.60;76.60
22081;DHT22;11207;59.512;18.050;2022-07-17T08:08:34;20.60;74.60
22081;DHT22;11207;59.512;18.050;2022-07-17T08:11:00;20.40;73.70
22081;DHT22;11207;59.512;18.050;2022-07-17T08:13:26;20.40;73.60
22081;DHT22;11207;59.512;18.050;2022-07-17T08:15:52;20.40;75.50
22081;DHT22;11207;59.512;18.050;2022-07-17T08:18:18;20.50;76.30
22081;DHT22;11207;59.512;18.050;2022-07-17T08:20:44;20.50;73.50
22081;DHT22;11207;59.512;18.050;2022-07-17T08:23:09;20.40;73.20
22081;DHT22;11207;59.512;18.050;2022-07-17T08:25:35;20.60;74.00
22081;DHT22;11207;59.512;18.050;2022-07-17T08:28:01;20.80;74.90
22081;DHT22;11207;59.512;18.050;2022-07-17T08:30:27;21.00;78.50
22081;DHT22;11207;59.512;18.050;2022-07-17T08:32:53;21.10;77.20
22081;DHT22;11207;59.512;18.050;2022-07-17T08:35:18;21.30;72.90
22081;DHT22;11207;59.512;18.050;2022-07-17T08:37:48;21.70;76.80
22081;DHT22;11207;59.512;18.050;2022-07-17T08:40:22;21.60;71.30
22081;DHT22;11207;59.512;18.050;2022-07-17T08:42:49;21.90;76.90
22081;DHT22;11207;59.512;18.050;2022-07-17T08:45:15;22.10;72.40
22081;DHT22;11207;59.512;18.050;2022-07-17T08:47:41;22.40;77.30
22081;DHT22;11207;59.512;18.050;2022-07-17T08:50:09;22.80;66.90
22081;DHT22;11207;59.512;18.050;2022-07-17T08:52:37;22.40;66.20
22081;DHT22;11207;59.512;18.050;2022-07-17T08:55:07;22.20;69.50
22081;DHT22;11207;59.512;18.050;2022-07-17T08:57:37;21.90;69.30
22081;DHT22;11207;59.512;18.050;2022-07-17T09:00:05;21.70;67.40
22081;DHT22;11207;59.512;18.050;2022-07-17T09:02:31;21.60;68.20
22081;DHT22;11207;59.512;18.050;2022-07-17T09:04:56;21.80;69.70
22081;DHT22;11207;59.512;18.050;2022-07-17T09:07:22;22.00;71.20
22081;DHT22;11207;59.512;18.050;2022-07-17T09:09:52;21.80;69.60
22081;DHT22;11207;59.512;18.050;2022-07-17T09:12:28;21.40;68.30
22081;DHT22;11207;59.512;18.050;2022-07-17T09:14:54;21.40;69.30
22081;DHT22;11207;59.512;18.050;2022-07-17T09:17:19;21.60;69.00
22081;DHT22;11207;59.512;18.050;2022-07-17T09:19:46;21.70;68.90
22081;DHT22;11207;59.512;18.050;2022-07-17T09:22:23;22.10;75.00
22081;DHT22;11207;59.512;18.050;2022-07-17T09:24:55;22.40;65.60
22081;DHT22;11207;59.512;18.050;2022-07-17T09:35:07;22.20;68.90
22081;DHT22;11207;59.512;18.050;2022-07-17T09:37:34;22.60;67.90
22081;DHT22;11207;59.512;18.050;2022-07-17T09:40:01;22.80;75.70
22081;DHT22;11207;59.512;18.050;2022-07-17T09:42:33;23.00;68.20
22081;DHT22;11207;59.512;18.050;2022-07-17T09:47:26;22.50;65.90
22081;DHT22;11207;59.512;18.050;2022-07-17T09:49:54;22.30;68.00
22081;DHT22;11207;59.512;18.050;2022-07-17T09:52:22;22.50;68.10
22081;DHT22;11207;59.512;18.050;2022-07-17T09:54:48;22.50;67.00
22081;DHT22;11207;59.512;18.050;2022-07-17T09:57:16;22.50;68.30
22081;DHT22;11207;59.512;18.050;2022-07-17T09:59:43;22.30;66.80
22081;DHT22;11207;59.512;18.050;2022-07-17T10:02:10;22.40;68.10
22081;DHT22;11207;59.512;18.050;2022-07-17T10:04:36;22.30;68.40
22081;DHT22;11207;59.512;18.050;2022-07-17T10:07:02;22.60;75.20
22081;DHT22;11207;59.512;18.050;2022-07-17T10:09:28;22.80;65.90
22081;DHT22;11207;59.512;18.050;2022-07-17T10:11:55;23.00;66.40
22081;DHT22;11207;59.512;18.050;2022-07-17T10:14:21;22.60;64.10
22081;DHT22;11207;59.512;18.050;2022-07-17T10:16:47;21.90;65.20
22081;DHT22;11207;59.512;18.050;2022-07-17T10:19:24;21.80;63.80
22081;DHT22;11207;59.512;18.050;2022-07-17T10:22:03;21.90;61.90
22081;DHT22;11207;59.512;18.050;2022-07-17T10:24:31;21.80;63.20
22081;DHT22;11207;59.512;18.050;2022-07-17T10:26:57;21.80;68.30
22081;DHT22;11207;59.512;18.050;2022-07-17T10:29:36;22.50;65.60
22081;DHT22;11207;59.512;18.050;2022-07-17T10:32:07;22.60;63.40
22081;DHT22;11207;59.512;18.050;2022-07-17T10:37:19;22.70;61.20
22081;DHT22;11207;59.512;18.050;2022-07-17T10:47:57;22.80;72.20
22081;DHT22;11207;59.512;18.050;2022-07-17T10:50:28;22.90;66.20
22081;DHT22;11207;59.512;18.050;2022-07-17T10:53:07;23.10;62.80
22081;DHT22;11207;59.512;18.050;2022-07-17T10:55:35;22.40;62.20
22081;DHT22;11207;59.512;18.050;2022-07-17T10:58:01;22.40;60.90
22081;DHT22;11207;59.512;18.050;2022-07-17T11:00:27;22.10;62.30
22081;DHT22;11207;59.512;18.050;2022-07-17T11:02:53;22.50;60.60
22081;DHT22;11207;59.512;18.050;2022-07-17T11:05:18;22.70;61.10
22081;DHT22;11207;59.512;18.050;2022-07-17T11:08:03;23.00;63.70
22081;DHT22;11207;59.512;18.050;2022-07-17T11:10:35;23.00;59.70
22081;DHT22;11207;59.512;18.050;2022-07-17T11:13:15;22.90;58.60
22081;DHT22;11207;59.512;18.050;2022-07-17T11:15:46;23.10;67.00
22081;DHT22;11207;59.512;18.050;2022-07-17T11:20:54;22.90;59.60
22081;DHT22;11207;59.512;18.050;2022-07-17T11:23:21;22.30;59.20
22081;DHT22;11207;59.512;18.050;2022-07-17T11:26:05;22.50;62.70
22081;DHT22;11207;59.512;18.050;2022-07-17T11:31:02;22.80;62.10
22081;DHT22;11207;59.512;18.050;2022-07-17T11:33:29;22.80;64.20
22081;DHT22;11207;59.512;18.050;2022-07-17T11:35:54;23.00;61.70
22081;DHT22;11207;59.512;18.050;2022-07-17T11:38:25;23.50;60.30
22081;DHT22;11207;59.512;18.050;2022-07-17T11:40:51;23.50;60.10
22081;DHT22;11207;59.512;18.050;2022-07-17T11:43:17;23.50;62.00
22081;DHT22;11207;59.512;18.050;2022-07-17T11:45:42;23.70;59.80
22081;DHT22;11207;59.512;18.050;2022-07-17T11:48:08;23.80;59.50
22081;DHT22;11207;59.512;18.050;2022-07-17T11:50:34;23.70;59.00
22081;DHT22;11207;59.512;18.050;2022-07-17T11:53:02;23.40;58.70
22081;DHT22;11207;59.512;18.050;2022-07-17T11:55:39;23.30;59.80
22081;DHT22;11207;59.512;18.050;2022-07-17T11:58:05;23.50;60.00
22081;DHT22;11207;59.512;18.050;2022-07-17T12:00:31;23.50;58.60
22081;DHT22;11207;59.512;18.050;2022-07-17T12:03:05;23.30;62.00
22081;DHT22;11207;59.512;18.050;2022-07-17T12:05:35;23.50;61.90
22081;DHT22;11207;59.512;18.050;2022-07-17T12:08:01;24.00;66.60
22081;DHT22;11207;59.512;18.050;2022-07-17T12:10:29;23.80;63.50
22081;DHT22;11207;59.512;18.050;2022-07-17T12:13:06;23.50;60.10
22081;DHT22;11207;59.512;18.050;2022-07-17T12:15:40;23.10;59.00
22081;DHT22;11207;59.512;18.050;2022-07-17T12:18:19;23.00;59.80
22081;DHT22;11207;59.512;18.050;2022-07-17T12:20:50;23.50;60.00
22081;DHT22;11207;59.512;18.050;2022-07-17T12:23:36;23.70;59.00
22081;DHT22;11207;59.512;18.050;2022-07-17T12:26:08;24.20;60.90
22081;DHT22;11207;59.512;18.050;2022-07-17T12:28:34;24.20;59.00
22081;DHT22;11207;59.512;18.050;2022-07-17T12:31:00;24.30;59.70
22081;DHT22;11207;59.512;18.050;2022-07-17T12:33:26;24.80;58.80
22081;DHT22;11207;59.512;18.050;2022-07-17T12:35:52;24.40;58.30
22081;DHT22;11207;59.512;18.050;2022-07-17T12:38:18;24.70;59.70
22081;DHT22;11207;59.512;18.050;2022-07-17T12:40:43;24.50;56.40
22081;DHT22;11207;59.512;18.050;2022-07-17T12:43:09;24.20;56.00
22081;DHT22;11207;59.512;18.050;2022-07-17T12:45:35;24.20;56.60
22081;DHT22;11207;59.512;18.050;2022-07-17T12:48:01;24.20;57.70
22081;DHT22;11207;59.512;18.050;2022-07-17T12:50:27;24.50;58.00
22081;DHT22;11207;59.512;18.050;2022-07-17T12:52:52;24.30;56.90
22081;DHT22;11207;59.512;18.050;2022-07-17T12:55:18;24.20;59.20
22081;DHT22;11207;59.512;18.050;2022-07-17T12:57:44;24.20;56.60
22081;DHT22;11207;59.512;18.050;2022-07-17T13:00:11;24.20;57.40
22081;DHT22;11207;59.512;18.050;2022-07-17T13:02:37;23.70;56.40
22081;DHT22;11207;59.512;18.050;2022-07-17T13:05:03;23.60;56.60
22081;DHT22;11207;59.512;18.050;2022-07-17T13:07:28;23.00;57.30
22081;DHT22;11207;59.512;18.050;2022-07-17T13:09:54;22.70;61.70
22081;DHT22;11207;59.512;18.050;2022-07-17T13:12:21;22.80;62.70
22081;DHT22;11207;59.512;18.050;2022-07-17T13:14:47;22.80;63.90
22081;DHT22;11207;59.512;18.050;2022-07-17T13:17:13;22.90;62.40
22081;DHT22;11207;59.512;18.050;2022-07-17T13:19:39;23.00;61.10
22081;DHT22;11207;59.512;18.050;2022-07-17T13:22:04;23.20;62.50
22081;DHT22;11207;59.512;18.050;2022-07-17T13:24:30;23.10;63.50
22081;DHT22;11207;59.512;18.050;2022-07-17T13:26:56;23.10;61.70
22081;DHT22;11207;59.512;18.050;2022-07-17T13:29:22;23.10;62.80
22081;DHT22;11207;59.512;18.050;2022-07-17T13:31:48;22.80;60.50
22081;DHT22;11207;59.512;18.050;2022-07-17T13:34:13;22.50;61.20
22081;DHT22;11207;59.512;18.050;2022-07-17T13:36:39;22.50;59.60
22081;DHT22;11207;59.512;18.050;2022-07-17T13:39:05;22.50;61.90
22081;DHT22;11207;59.512;18.050;2022-07-17T13:41:31;22.50;59.40
22081;DHT22;11207;59.512;18.050;2022-07-17T13:43:57;22.70;62.30
22081;DHT22;11207;59.512;18.050;2022-07-17T13:46:23;22.80;61.10
22081;DHT22;11207;59.512;18.050;2022-07-17T13:48:48;22.80;61.10
22081;DHT22;11207;59.512;18.050;2022-07-17T13:51:14;22.70;63.20
22081;DHT22;11207;59.512;18.050;2022-07-17T13:53:41;22.50;62.20
22081;DHT22;11207;59.512;18.050;2022-07-17T13:56:08;22.50;64.50
22081;DHT22;11207;59.512;18.050;2022-07-17T13:58:33;22.50;68.10
22081;DHT22;11207;59.512;18.050;2022-07-17T14:00:59;22.40;63.10
22081;DHT22;11207;59.512;18.050;2022-07-17T14:03:25;22.30;64.70
22081;DHT22;11207;59.512;18.050;2022-07-17T14:05:51;22.40;63.90
22081;DHT22;11207;59.512;18.050;2022-07-17T14:08:16;22.60;63.10
22081;DHT22;11207;59.512;18.050;2022-07-17T14:10:42;22.60;64.30
22081;DHT22;11207;59.512;18.050;2022-07-17T14:13:09;22.80;61.10
22081;DHT22;11207;59.512;18.050;2022-07-17T14:15:35;22.70;61.30
22081;DHT22;11207;59.512;18.050;2022-07-17T14:18:01;22.60;62.10
22081;DHT22;11207;59.512;18.050;2022-07-17T14:20:27;22.70;62.40
22081;DHT22;11207;59.512;18.050;2022-07-17T14:22:53;22.60;60.90
22081;DHT22;11207;59.512;18.050;2022-07-17T14:25:18;22.50;60.20
22081;DHT22;11207;59.512;18.050;2022-07-17T14:27:44;22.40;60.30
22081;DHT22;11207;59.512;18.050;2022-07-17T14:30:10;22.50;61.60
22081;DHT22;11207;59.512;18.050;2022-07-17T14:32:36;22.60;58.80
22081;DHT22;11207;59.512;18.050;2022-07-17T14:35:03;22.70;59.60
22081;DHT22;11207;59.512;18.050;2022-07-17T14:37:29;22.60;58.80
22081;DHT22;11207;59.512;18.050;2022-07-17T14:39:55;22.40;61.90
22081;DHT22;11207;59.512;18.050;2022-07-17T14:42:20;22.30;62.30
22081;DHT22;11207;59.512;18.050;2022-07-17T14:44:46;22.10;59.90
22081;DHT22;11207;59.512;18.050;2022-07-17T14:47:12;22.10;59.20
22081;DHT22;11207;59.512;18.050;2022-07-17T14:49:37;22.10;59.10
22081;DHT22;11207;59.512;18.050;2022-07-17T14:52:03;22.00;61.30
22081;DHT22;11207;59.512;18.050;2022-07-17T14:54:29;21.90;61.30
22081;DHT22;11207;59.512;18.050;2022-07-17T14:56:56;22.10;61.60
22081;DHT22;11207;59.512;18.050;2022-07-17T14:59:23;22.20;60.10
22081;DHT22;11207;59.512;18.050;2022-07-17T15:01:49;22.40;62.10
22081;DHT22;11207;59.512;18.050;2022-07-17T15:04:15;22.40;60.30
22081;DHT22;11207;59.512;18.050;2022-07-17T15:06:40;22.40;57.90
22081;DHT22;11207;59.512;18.050;2022-07-17T15:09:07;22.50;59.40
22081;DHT22;11207;59.512;18.050;2022-07-17T15:11:33;22.50;57.10
22081;DHT22;11207;59.512;18.050;2022-07-17T15:13:58;22.40;57.50
22081;DHT22;11207;59.512;18.050;2022-07-17T15:16:24;22.40;57.30
22081;DHT22;11207;59.512;18.050;2022-07-17T15:18:49;22.30;56.70
22081;DHT22;11207;59.512;18.050;2022-07-17T15:21:15;22.50;59.70
22081;DHT22;11207;59.512;18.050;2022-07-17T15:23:41;22.50;58.40
22081;DHT22;11207;59.512;18.050;2022-07-17T15:26:08;22.60;57.10
22081;DHT22;11207;59.512;18.050;2022-07-17T15:28:34;22.70;57.10
22081;DHT22;11207;59.512;18.050;2022-07-17T15:30:59;22.60;58.60
22081;DHT22;11207;59.512;18.050;2022-07-17T15:33:25;22.40;58.50
22081;DHT22;11207;59.512;18.050;2022-07-17T15:35:51;22.30;57.60
22081;DHT22;11207;59.512;18.050;2022-07-17T15:38:16;22.00;57.80